sensor_id;sensor_type;location;lat;lon;timestamp;temperature;humidity
1391;DHT22;690;51.454;7.194;2023-05-20T00:02:14;10.10;99.90
1391;DHT22;690;51.454;7.194;2023-05-20T00:04:41;10.00;99.90
1391;DHT22;690;51.454;7.194;2023-05-20T00:07:09;10.00;99.90
1391;DHT22;690;51.454;7.194;2023-05-20T00:09:38;10.00;99.90
1391;DHT22;690;51.454;7.194;2023-05-20T00:12:05;10.00;99.90
1391;DHT22;690;51.454;7.194;2023-05-20T00:14:32;9.90;99.90
1391;DHT22;690;51.454;7.194;2023-05-20T00:16:59;9.90;99.90
1391;DHT22;690;51.454;7.194;2023-05-20T00:19:26;9.90;99.90
1391;DHT22;690;51.454;7.194;2023-05-20T00:21:53;9.90;99.90
1391;DHT22;690;51.454;7.194;2023-05-20T00:24:23;9.90;99.90
1391;DHT22;690;51.454;7.194;2023-05-20T00:26:50;9.90;99.90
1391;DHT22;690;51.454;7.194;2023-05-20T00:29:17;9.90;99.90
1391;DHT22;690;51.454;7.194;2023-05-20T00:31:44;9.90;99.90
1391;DHT22;690;51.454;7.194;2023-05-20T00:34:11;9.90;99.90
1391;DHT22;690;51.454;7.194;2023-05-20T00:36:38;9.90;99.90
1391;DHT22;690;51.454;7.194;2023-05-20T00:39:05;9.90;99.90
1391;DHT22;690;51.454;7.194;2023-05-20T00:41:33;9.90;99.90
1391;DHT22;690;51.454;7.194;2023-05-20T00:44:01;9.90;99.90
1391;DHT22;690;51.454;7.194;2023-05-20T00:46:28;9.90;99.90
1391;DHT22;690;51.454;7.194;2023-05-20T00:48:55;9.80;99.90
1391;DHT22;690;51.454;7.194;2023-05-20T00:51:22;9.80;99.90
1391;DHT22;690;51.454;7.194;2023-05-20T00:53:51;9.70;99.90
1391;DHT22;690;51.454;7.194;2023-05-20T00:56:19;9.70;99.90
1391;DHT22;690;51.454;7.194;2023-05-20T00:58:48;9.60;99.90
1391;DHT22;690;51.454;7.194;2023-05-20T01:01:15;9.60;99.90
1391;DHT22;690;51.454;7.194;2023-05-20T01:03:42;9.50;99.90
1391;DHT22;690;51.454;7.194;2023-05-20T01:06:09;9.50;99.90
1391;DHT22;690;51.454;7.194;2023-05-20T01:08:36;9.40;99.90
1391;DHT22;690;51.454;7.194;2023-05-20T01:11:06;9.30;99.90
1391;DHT22;690;51.454;7.194;2023-05-20T01:13:38;9.30;99.90
1391;DHT22;690;51.454;7.194;2023-05-20T01:16:08;9.30;99.90
1391;DHT22;690;51.454;7.194;2023-05-20T01:18:37;9.20;99.90
1391;DHT22;690;51.454;7.194;2023-05-20T01:21:07;9.20;99.90
1391;DHT22;690;51.454;7.194;2023-05-20T01:23:39;9.20;99.90
1391;DHT22;690;51.454;7.194;2023-05-20T01:26:06;9.10;99.90
1391;DHT22;690;51.454;7.194;2023-05-20T01:28:33;9.10;99.90
1391;DHT22;690;51.454;7.194;2023-05-20T01:31:03;9.10;99.90
1391;DHT22;690;51.454;7.194;2023-05-20T01:33:34;9.10;99.90
1391;DHT22;690;51.454;7.194;2023-05-20T01:36:02;9.10;99.90
1391;DHT22;690;51.454;7.194;2023-05-20T01:38:30;9.10;99.90
1391;DHT22;690;51.454;7.194;2023-05-20T01:40:58;9.00;99.90
1391;DHT22;690;51.454;7.194;2023-05-20T01:43:27;9.00;99.90
1391;DHT22;690;51.454;7.194;2023-05-20T01:45:54;9.00;99.90
1391;DHT22;690;51.454;7.194;2023-05-20T01:48:21;8.90;99.90
1391;DHT22;690;51.454;7.194;2023-05-20T01:50:48;8.90;99.90
1391;DHT22;690;51.454;7.194;2023-05-20T01:53:15;8.90;99.90
1391;DHT22;690;51.454;7.194;2023-05-20T01:55:42;8.90;99.90
1391;DHT22;690;51.454;7.194;2023-05-20T01:58:10;8.90;99.90
1391;DHT22;690;51.454;7.194;2023-05-20T02:00:37;8.90;99.90
1391;DHT22;690;51.454;7.194;2023-05-20T02:03:04;8.90;99.90
1391;DHT22;690;51.454;7.194;2023-05-20T02:05:31;8.80;99.90
1391;DHT22;690;51.454;7.194;2023-05-20T02:07:58;8.80;99.90
1391;DHT22;690;51.454;7.194;2023-05-20T02:10:25;8.80;99.90
1391;DHT22;690;51.454;7.194;2023-05-20T02:12:51;8.70;99.90
1391;DHT22;690;51.454;7.194;2023-05-20T02:15:29;8.70;99.90
1391;DHT22;690;51.454;7.194;2023-05-20T02:18:06;8.70;99.90
1391;DHT22;690;51.454;7.194;2023-05-20T02:20:34;8.70;99.90
1391;DHT22;690;51.454;7.194;2023-05-20T02:23:01;8.60;99.90
1391;DHT22;690;51.454;7.194;2023-05-20T02:25:30;8.60;99.90
1391;DHT22;690;51.454;7.194;2023-05-20T02:27:57;8.60;99.90
1391;DHT22;690;51.454;7.194;2023-05-20T02:30:25;8.60;99.90
1391;DHT22;690;51.454;7.194;2023-05-20T02:32:53;8.60;99.90
1391;DHT22;690;51.454;7.194;2023-05-20T02:35:20;8.50;99.90
1391;DHT22;690;51.454;7.194;2023-05-20T02:37:51;8.50;99.90
1391;DHT22;690;51.454;7.194;2023-05-20T02:40:18;8.50;99.90
1391;DHT22;690;51.454;7.194;2023-05-20T02:42:51;8.50;99.90
1391;DHT22;690;51.454;7.194;2023-05-20T02:45:17;8.50;99.90
1391;DHT22;690;51.454;7.194;2023-05-20T02:47:44;8.40;99.90
1391;DHT22;690;51.454;7.194;2023-05-20T02:50:13;8.40;99.90
1391;DHT22;690;51.454;7.194;2023-05-20T02:52:39;8.40;99.90
1391;DHT22;690;51.454;7.194;2023-05-20T02:55:07;8.40;99.90
1391;DHT22;690;51.454;7.194;2023-05-20T02:57:34;8.30;99.90
1391;DHT22;690;51.454;7.194;2023-05-20T03:00:03;8.30;99.90
1391;DHT22;690;51.454;7.194;2023-05-20T03:02:31;8.30;99.90
1391;DHT22;690;51.454;7.194;2023-05-20T03:04:58;8.30;99.90
1391;DHT22;690;51.454;7.194;2023-05-20T03:07:29;8.30;99.90
1391;DHT22;690;51.454;7.194;2023-05-20T03:09:57;8.20;99.90
1391;DHT22;690;51.454;7.194;2023-05-20T03:12:24;8.20;99.90
1391;DHT22;690;51.454;7.194;2023-05-20T03:14:51;8.20;99.90
1391;DHT22;690;51.454;7.194;2023-05-20T03:17:19;8.20;99.90
1391;DHT22;690;51.454;7.194;2023-05-20T03:19:46;8.20;99.90
1391;DHT22;690;51.454;7.194;2023-05-20T03:22:13;8.20;99.90
1391;DHT22;690;51.454;7.194;2023-05-20T03:24:41;8.20;99.90
1391;DHT22;690;51.454;7.194;2023-05-20T03:27:08;8.10;99.90
1391;DHT22;690;51.454;7.194;2023-05-20T03:29:40;8.20;99.90
1391;DHT22;690;51.454;7.194;2023-05-20T03:32:07;8.20;99.90
1391;DHT22;690;51.454;7.194;2023-05-20T03:34:34;8.10;99.90
1391;DHT22;690;51.454;7.194;2023-05-20T03:37:01;8.10;99.90
1391;DHT22;690;51.454;7.194;2023-05-20T03:39:28;8.10;99.90
1391;DHT22;690;51.454;7.194;2023-05-20T03:41:56;8.10;99.90
1391;DHT22;690;51.454;7.194;2023-05-20T03:44:23;8.10;99.90
1391;DHT22;690;51.454;7.194;2023-05-20T03:46:50;8.10;99.90
1391;DHT22;690;51.454;7.194;2023-05-20T03:49:17;8.10;99.90
1391;DHT22;690;51.454;7.194;2023-05-20T03:51:43;8.00;99.90
1391;DHT22;690;51.454;7.194;2023-05-20T03:54:11;8.10;99.90
1391;DHT22;690;51.454;7.194;2023-05-20T03:56:38;8.10;99.90
1391;DHT22;690;51.454;7.194;2023-05-20T03:59:06;8.10;99.90
1391;DHT22;690;51.454;7.194;2023-05-20T04:01:33;8.10;99.90
1391;DHT22;690;51.454;7.194;2023-05-20T04:04:00;8.10;99.90
1391;DHT22;690;51.454;7.194;2023-05-20T04:06:26;8.10;99.90
1391;DHT22;690;51.454;7.194;2023-05-20T04:08:53;8.20;99.90
1391;DHT22;690;51.454;7.194;2023-05-20T04:11:20;8.20;99.90
1391;DHT22;690;51.454;7.194;2023-05-20T04:13:47;8.30;99.90
1391;DHT22;690;51.454;7.194;2023-05-20T04:16:15;8.30;99.90
1391;DHT22;690;51.454;7.194;2023-05-20T04:18:42;8.30;99.90
1391;DHT22;690;51.454;7.194;2023-05-20T04:21:10;8.40;99.90
1391;DHT22;690;51.454;7.194;2023-05-20T04:23:37;8.50;99.90
1391;DHT22;690;51.454;7.194;2023-05-20T04:26:04;8.50;99.90
1391;DHT22;690;51.454;7.194;2023-05-20T04:28:31;8.60;99.90
1391;DHT22;690;51.454;7.194;2023-05-20T04:30:58;8.60;99.90
1391;DHT22;690;51.454;7.194;2023-05-20T04:33:28;8.60;99.90
1391;DHT22;690;51.454;7.194;2023-05-20T04:35:57;8.70;99.90
1391;DHT22;690;51.454;7.194;2023-05-20T04:38:24;8.80;99.90
1391;DHT22;690;51.454;7.194;2023-05-20T04:40:54;8.90;99.90
1391;DHT22;690;51.454;7.194;2023-05-20T04:43:23;9.00;99.90
1391;DHT22;690;51.454;7.194;2023-05-20T04:45:50;9.00;99.90
1391;DHT22;690;51.454;7.194;2023-05-20T04:48:18;9.10;99.90
1391;DHT22;690;51.454;7.194;2023-05-20T04:50:48;9.20;99.90
1391;DHT22;690;51.454;7.194;2023-05-20T04:53:17;9.40;99.90
1391;DHT22;690;51.454;7.194;2023-05-20T04:55:44;9.40;99.90
1391;DHT22;690;51.454;7.194;2023-05-20T04:58:11;9.50;99.90
1391;DHT22;690;51.454;7.194;2023-05-20T05:00:40;9.60;99.90
1391;DHT22;690;51.454;7.194;2023-05-20T05:03:08;9.70;99.90
1391;DHT22;690;51.454;7.194;2023-05-20T05:05:36;9.80;99.90
1391;DHT22;690;51.454;7.194;2023-05-20T05:08:05;9.90;99.90
1391;DHT22;690;51.454;7.194;2023-05-20T05:10:32;10.00;99.90
1391;DHT22;690;51.454;7.194;2023-05-20T05:12:59;10.10;99.90
1391;DHT22;690;51.454;7.194;2023-05-20T05:15:27;10.20;99.90
1391;DHT22;690;51.454;7.194;2023-05-20T05:17:54;10.30;99.90
1391;DHT22;690;51.454;7.194;2023-05-20T05:20:21;10.40;99.90
1391;DHT22;690;51.454;7.194;2023-05-20T05:22:49;10.40;99.90
1391;DHT22;690;51.454;7.194;2023-05-20T05:25:17;10.40;99.90
1391;DHT22;690;51.454;7.194;2023-05-20T05:27:44;10.50;99.90
1391;DHT22;690;51.454;7.194;2023-05-20T05:30:13;10.50;99.90
1391;DHT22;690;51.454;7.194;2023-05-20T05:32:40;10.50;99.90
1391;DHT22;690;51.454;7.194;2023-05-20T05:35:08;10.60;99.90
1391;DHT22;690;51.454;7.194;2023-05-20T05:37:35;10.70;99.90
1391;DHT22;690;51.454;7.194;2023-05-20T05:40:02;10.70;99.90
1391;DHT22;690;51.454;7.194;2023-05-20T05:42:30;10.80;99.90
1391;DHT22;690;51.454;7.194;2023-05-20T05:44:57;10.90;99.90
1391;DHT22;690;51.454;7.194;2023-05-20T05:47:24;10.90;99.90
1391;DHT22;690;51.454;7.194;2023-05-20T05:49:54;11.00;99.90
1391;DHT22;690;51.454;7.194;2023-05-20T05:52:22;11.00;99.90
1391;DHT22;690;51.454;7.194;2023-05-20T05:54:50;11.00;99.90
1391;DHT22;690;51.454;7.194;2023-05-20T05:57:17;11.00;99.90
1391;DHT22;690;51.454;7.194;2023-05-20T05:59:45;11.10;99.90
1391;DHT22;690;51.454;7.194;2023-05-20T06:02:12;11.20;99.90
1391;DHT22;690;51.454;7.194;2023-05-20T06:04:39;11.30;99.90
1391;DHT22;690;51.454;7.194;2023-05-20T06:07:06;11.40;99.90
1391;DHT22;690;51.454;7.194;2023-05-20T06:09:33;11.50;99.90
1391;DHT22;690;51.454;7.194;2023-05-20T06:12:00;11.60;99.90
1391;DHT22;690;51.454;7.194;2023-05-20T06:14:27;11.60;99.90
1391;DHT22;690;51.454;7.194;2023-05-20T06:16:55;11.70;99.90
1391;DHT22;690;51.454;7.194;2023-05-20T06:19:25;11.80;99.90
1391;DHT22;690;51.454;7.194;2023-05-20T06:21:51;11.90;99.90
1391;DHT22;690;51.454;7.194;2023-05-20T06:24:18;11.90;99.90
1391;DHT22;690;51.454;7.194;2023-05-20T06:26:45;12.00;99.90
1391;DHT22;690;51.454;7.194;2023-05-20T06:29:14;12.00;99.90
1391;DHT22;690;51.454;7.194;2023-05-20T06:31:41;12.00;99.90
1391;DHT22;690;51.454;7.194;2023-05-20T06:34:09;12.00;99.90
1391;DHT22;690;51.454;7.194;2023-05-20T06:36:36;12.00;99.90
1391;DHT22;690;51.454;7.194;2023-05-20T06:39:03;12.00;99.90
1391;DHT22;690;51.454;7.194;2023-05-20T06:41:31;12.20;99.90
1391;DHT22;690;51.454;7.194;2023-05-20T06:43:57;12.30;99.90
1391;DHT22;690;51.454;7.194;2023-05-20T06:46:24;12.50;99.90
1391;DHT22;690;51.454;7.194;2023-05-20T06:48:51;12.50;99.90
1391;DHT22;690;51.454;7.194;2023-05-20T06:51:19;12.60;99.90
1391;DHT22;690;51.454;7.194;2023-05-20T06:53:46;12.80;99.90
1391;DHT22;690;51.454;7.194;2023-05-20T06:56:13;12.90;99.90
1391;DHT22;690;51.454;7.194;2023-05-20T06:58:40;13.10;99.90
1391;DHT22;690;51.454;7.194;2023-05-20T07:01:07;13.20;99.90
1391;DHT22;690;51.454;7.194;2023-05-20T07:03:36;13.30;99.90
1391;DHT22;690;51.454;7.194;2023-05-20T07:06:03;13.60;99.90
1391;DHT22;690;51.454;7.194;2023-05-20T07:08:31;13.80;99.90
1391;DHT22;690;51.454;7.194;2023-05-20T07:10:58;13.80;99.90
1391;DHT22;690;51.454;7.194;2023-05-20T07:13:25;13.90;99.90
1391;DHT22;690;51.454;7.194;2023-05-20T07:15:52;13.90;99.90
1391;DHT22;690;51.454;7.194;2023-05-20T07:18:19;13.90;99.90
1391;DHT22;690;51.454;7.194;2023-05-20T07:20:46;13.90;99.90
1391;DHT22;690;51.454;7.194;2023-05-20T07:23:13;13.90;99.90
1391;DHT22;690;51.454;7.194;2023-05-20T07:25:41;14.10;99.90
1391;DHT22;690;51.454;7.194;2023-05-20T07:28:08;14.10;99.90
1391;DHT22;690;51.454;7.194;2023-05-20T07:30:36;14.20;99.90
1391;DHT22;690;51.454;7.194;2023-05-20T07:33:03;14.30;99.90
1391;DHT22;690;51.454;7.194;2023-05-20T07:35:34;14.20;99.90
1391;DHT22;690;51.454;7.194;2023-05-20T07:38:01;14.20;99.90
1391;DHT22;690;51.454;7.194;2023-05-20T07:40:28;14.20;99.90
1391;DHT22;690;51.454;7.194;2023-05-20T07:42:56;14.20;99.90
1391;DHT22;690;51.454;7.194;2023-05-20T07:45:23;14.40;99.90
1391;DHT22;690;51.454;7.194;2023-05-20T07:47:50;14.50;99.90
1391;DHT22;690;51.454;7.194;2023-05-20T07:50:17;14.70;99.90
1391;DHT22;690;51.454;7.194;2023-05-20T07:52:44;14.80;99.90
1391;DHT22;690;51.454;7.194;2023-05-20T07:55:10;14.90;99.90
1391;DHT22;690;51.454;7.194;2023-05-20T07:57:37;14.80;99.90
1391;DHT22;690;51.454;7.194;2023-05-20T08:00:07;14.80;99.90
1391;DHT22;690;51.454;7.194;2023-05-20T08:02:34;14.90;99.90
1391;DHT22;690;51.454;7.194;2023-05-20T08:05:01;14.90;99.90
1391;DHT22;690;51.454;7.194;2023-05-20T08:07:29;15.00;99.90
1391;DHT22;690;51.454;7.194;2023-05-20T08:09:56;15.10;99.90
1391;DHT22;690;51.454;7.194;2023-05-20T08:12:24;15.10;99.90
1391;DHT22;690;51.454;7.194;2023-05-20T08:14:52;15.20;99.90
1391;DHT22;690;51.454;7.194;2023-05-20T08:17:20;15.30;99.90
1391;DHT22;690;51.454;7.194;2023-05-20T08:19:47;15.50;99.90
1391;DHT22;690;51.454;7.194;2023-05-20T08:22:14;15.60;99.90
1391;DHT22;690;51.454;7.194;2023-05-20T08:24:41;15.60;99.90
1391;DHT22;690;51.454;7.194;2023-05-20T08:27:08;15.60;99.90
1391;DHT22;690;51.454;7.194;2023-05-20T08:29:35;15.60;99.90
1391;DHT22;690;51.454;7.194;2023-05-20T08:32:02;15.80;99.90
1391;DHT22;690;51.454;7.194;2023-05-20T08:34:30;15.80;99.90
1391;DHT22;690;51.454;7.194;2023-05-20T08:36:57;15.80;99.90
1391;DHT22;690;51.454;7.194;2023-05-20T08:39:24;15.80;99.90
1391;DHT22;690;51.454;7.194;2023-05-20T08:41:51;15.90;99.90
1391;DHT22;690;51.454;7.194;2023-05-20T08:44:20;15.80;99.90
1391;DHT22;690;51.454;7.194;2023-05-20T08:46:47;15.90;99.90
1391;DHT22;690;51.454;7.194;2023-05-20T08:49:15;16.00;99.90
1391;DHT22;690;51.454;7.194;2023-05-20T08:51:43;15.90;99.90
1391;DHT22;690;51.454;7.194;2023-05-20T08:54:11;15.90;99.90
1391;DHT22;690;51.454;7.194;2023-05-20T08:56:39;15.80;99.90
1391;DHT22;690;51.454;7.194;2023-05-20T08:59:07;15.80;99.90
1391;DHT22;690;51.454;7.194;2023-05-20T09:01:39;15.80;99.90
1391;DHT22;690;51.454;7.194;2023-05-20T09:04:07;16.00;99.90
1391;DHT22;690;51.454;7.194;2023-05-20T09:06:43;16.10;99.90
1391;DHT22;690;51.454;7.194;2023-05-20T09:09:10;16.10;99.90
1391;DHT22;690;51.454;7.194;2023-05-20T09:11:38;16.00;99.90
1391;DHT22;690;51.454;7.194;2023-05-20T09:14:06;15.90;99.90
1391;DHT22;690;51.454;7.194;2023-05-20T09:16:33;15.80;99.90
1391;DHT22;690;51.454;7.194;2023-05-20T09:19:00;15.80;99.90
1391;DHT22;690;51.454;7.194;2023-05-20T09:21:27;15.90;99.90
1391;DHT22;690;51.454;7.194;2023-05-20T09:23:56;16.00;99.90
1391;DHT22;690;51.454;7.194;2023-05-20T09:26:26;16.00;99.90
1391;DHT22;690;51.454;7.194;2023-05-20T09:28:54;16.20;99.90
1391;DHT22;690;51.454;7.194;2023-05-20T09:31:25;16.20;99.90
1391;DHT22;690;51.454;7.194;2023-05-20T09:33:52;16.20;99.90
1391;DHT22;690;51.454;7.194;2023-05-20T09:36:21;16.10;99.90
1391;DHT22;690;51.454;7.194;2023-05-20T09:38:51;16.10;99.90
1391;DHT22;690;51.454;7.194;2023-05-20T09:41:22;15.90;99.90
1391;DHT22;690;51.454;7.194;2023-05-20T09:43:51;15.90;99.90
1391;DHT22;690;51.454;7.194;2023-05-20T09:46:19;15.90;99.90
1391;DHT22;690;51.454;7.194;2023-05-20T09:48:46;15.90;99.90
1391;DHT22;690;51.454;7.194;2023-05-20T09:51:14;16.00;99.90
1391;DHT22;690;51.454;7.194;2023-05-20T09:53:41;16.10;99.90
1391;DHT22;690;51.454;7.194;2023-05-20T09:56:09;16.10;99.90
1391;DHT22;690;51.454;7.194;2023-05-20T09:58:38;16.10;99.90
1391;DHT22;690;51.454;7.194;2023-05-20T10:01:06;16.30;99.90
1391;DHT22;690;51.454;7.194;2023-05-20T10:03:33;16.40;99.90
1391;DHT22;690;51.454;7.194;2023-05-20T10:06:24;16.50;99.90
1391;DHT22;690;51.454;7.194;2023-05-20T10:09:10;16.60;99.90
1391;DHT22;690;51.454;7.194;2023-05-20T10:11:51;16.70;99.90
1391;DHT22;690;51.454;7.194;2023-05-20T10:14:33;16.80;99.90
1391;DHT22;690;51.454;7.194;2023-05-20T10:17:08;16.80;99.90
1391;DHT22;690;51.454;7.194;2023-05-20T10:19:36;16.90;99.90
1391;DHT22;690;51.454;7.194;2023-05-20T10:22:04;17.00;99.90
1391;DHT22;690;51.454;7.194;2023-05-20T10:24:32;16.90;99.90
1391;DHT22;690;51.454;7.194;2023-05-20T10:27:02;16.80;99.90
1391;DHT22;690;51.454;7.194;2023-05-20T10:29:41;16.80;99.90
1391;DHT22;690;51.454;7.194;2023-05-20T10:32:08;16.90;99.90
1391;DHT22;690;51.454;7.194;2023-05-20T10:34:44;17.00;99.90
1391;DHT22;690;51.454;7.194;2023-05-20T10:37:23;17.10;99.90
1391;DHT22;690;51.454;7.194;2023-05-20T10:39:51;17.30;99.90
1391;DHT22;690;51.454;7.194;2023-05-20T10:42:27;17.40;99.90
1391;DHT22;690;51.454;7.194;2023-05-20T10:44:56;17.40;99.90
1391;DHT22;690;51.454;7.194;2023-05-20T10:47:23;17.50;99.90
1391;DHT22;690;51.454;7.194;2023-05-20T10:49:50;17.50;99.90
1391;DHT22;690;51.454;7.194;2023-05-20T10:52:17;17.60;99.90
1391;DHT22;690;51.454;7.194;2023-05-20T10:54:46;17.70;99.90
1391;DHT22;690;51.454;7.194;2023-05-20T10:57:13;17.90;99.90
1391;DHT22;690;51.454;7.194;2023-05-20T10:59:41;18.20;99.90
1391;DHT22;690;51.454;7.194;2023-05-20T11:02:10;18.40;99.90
1391;DHT22;690;51.454;7.194;2023-05-20T11:04:38;18.50;99.90
1391;DHT22;690;51.454;7.194;2023-05-20T11:07:05;18.60;99.90
1391;DHT22;690;51.454;7.194;2023-05-20T11:09:32;18.70;99.90
1391;DHT22;690;51.454;7.194;2023-05-20T11:11:59;18.80;99.90
1391;DHT22;690;51.454;7.194;2023-05-20T11:14:27;18.80;99.90
1391;DHT22;690;51.454;7.194;2023-05-20T11:16:55;18.90;99.90
1391;DHT22;690;51.454;7.194;2023-05-20T11:19:23;18.90;99.90
1391;DHT22;690;51.454;7.194;2023-05-20T11:21:51;19.00;99.90
1391;DHT22;690;51.454;7.194;2023-05-20T11:24:23;19.20;99.90
1391;DHT22;690;51.454;7.194;2023-05-20T11:26:50;19.60;99.90
1391;DHT22;690;51.454;7.194;2023-05-20T11:29:18;20.00;99.90
1391;DHT22;690;51.454;7.194;2023-05-20T11:31:47;20.10;99.90
1391;DHT22;690;51.454;7.194;2023-05-20T11:34:15;20.00;99.90
1391;DHT22;690;51.454;7.194;2023-05-20T11:36:44;19.90;99.90
1391;DHT22;690;51.454;7.194;2023-05-20T11:39:11;19.80;99.90
1391;DHT22;690;51.454;7.194;2023-05-20T11:41:41;19.80;99.90
1391;DHT22;690;51.454;7.194;2023-05-20T11:44:09;19.80;99.90
1391;DHT22;690;51.454;7.194;2023-05-20T11:46:42;19.80;99.90
1391;DHT22;690;51.454;7.194;2023-05-20T11:49:09;19.70;99.90
1391;DHT22;690;51.454;7.194;2023-05-20T11:51:37;19.90;99.90
1391;DHT22;690;51.454;7.194;2023-05-20T11:54:06;20.00;99.90
1391;DHT22;690;51.454;7.194;2023-05-20T11:56:34;20.00;99.90
1391;DHT22;690;51.454;7.194;2023-05-20T11:59:02;20.00;99.90
1391;DHT22;690;51.454;7.194;2023-05-20T12:01:31;20.20;99.90
1391;DHT22;690;51.454;7.194;2023-05-20T12:04:03;20.50;99.90
1391;DHT22;690;51.454;7.194;2023-05-20T12:06:30;20.60;99.90
1391;DHT22;690;51.454;7.194;2023-05-20T12:08:59;20.50;99.90
1391;DHT22;690;51.454;7.194;2023-05-20T12:11:29;20.30;99.90
1391;DHT22;690;51.454;7.194;2023-05-20T12:13:56;20.10;99.90
1391;DHT22;690;51.454;7.194;2023-05-20T12:16:23;20.00;99.90
1391;DHT22;690;51.454;7.194;2023-05-20T12:18:50;20.00;99.90
1391;DHT22;690;51.454;7.194;2023-05-20T12:21:17;19.90;99.90
1391;DHT22;690;51.454;7.194;2023-05-20T12:23:44;20.00;99.90
1391;DHT22;690;51.454;7.194;2023-05-20T12:26:11;20.20;99.90
1391;DHT22;690;51.454;7.194;2023-05-20T12:28:39;20.30;99.90
1391;DHT22;690;51.454;7.194;2023-05-20T12:31:06;20.60;99.90
1391;DHT22;690;51.454;7.194;2023-05-20T12:33:33;20.70;99.90
1391;DHT22;690;51.454;7.194;2023-05-20T12:36:00;20.60;99.90
1391;DHT22;690;51.454;7.194;2023-05-20T12:38:27;20.50;99.90
1391;DHT22;690;51.454;7.194;2023-05-20T12:40:53;20.50;99.90
1391;DHT22;690;51.454;7.194;2023-05-20T12:43:22;20.50;99.90
1391;DHT22;690;51.454;7.194;2023-05-20T12:45:50;20.60;99.90
1391;DHT22;690;51.454;7.194;2023-05-20T12:48:17;20.70;99.90
1391;DHT22;690;51.454;7.194;2023-05-20T12:50:44;20.60;99.90
1391;DHT22;690;51.454;7.194;2023-05-20T12:53:11;20.50;99.90
1391;DHT22;690;51.454;7.194;2023-05-20T12:55:38;20.60;99.90
1391;DHT22;690;51.454;7.194;2023-05-20T12:58:05;20.50;99.90
1391;DHT22;690;51.454;7.194;2023-05-20T13:00:33;20.40;99.90
1391;DHT22;690;51.454;7.194;2023-05-20T13:03:05;20.40;99.90
1391;DHT22;690;51.454;7.194;2023-05-20T13:05:32;20.40;99.90
1391;DHT22;690;51.454;7.194;2023-05-20T13:07:59;20.50;99.90
1391;DHT22;690;51.454;7.194;2023-05-20T13:10:26;20.60;99.90
1391;DHT22;690;51.454;7.194;2023-05-20T13:12:55;20.70;99.90
1391;DHT22;690;51.454;7.194;2023-05-20T13:15:22;20.70;99.90
1391;DHT22;690;51.454;7.194;2023-05-20T13:17:49;20.70;99.90
1391;DHT22;690;51.454;7.194;2023-05-20T13:20:17;20.70;99.90
1391;DHT22;690;51.454;7.194;2023-05-20T13:22:44;20.70;99.90
1391;DHT22;690;51.454;7.194;2023-05-20T13:25:11;20.60;99.90
1391;DHT22;690;51.454;7.194;2023-05-20T13:27:38;20.50;99.90
1391;DHT22;690;51.454;7.194;2023-05-20T13:30:06;20.50;99.90
1391;DHT22;690;51.454;7.194;2023-05-20T13:32:33;20.50;99.90
1391;DHT22;690;51.454;7.194;2023-05-20T13:35:00;20.50;99.90
1391;DHT22;690;51.454;7.194;2023-05-20T13:37:29;20.60;99.90
1391;DHT22;690;51.454;7.194;2023-05-20T13:39:55;20.70;99.90
1391;DHT22;690;51.454;7.194;2023-05-20T13:42:22;20.70;99.90
1391;DHT22;690;51.454;7.194;2023-05-20T13:44:49;20.70;99.90
1391;DHT22;690;51.454;7.194;2023-05-20T13:47:16;20.80;99.90
1391;DHT22;690;51.454;7.194;2023-05-20T13:49:43;20.80;99.90
1391;DHT22;690;51.454;7.194;2023-05-20T13:52:10;20.60;99.90
1391;DHT22;690;51.454;7.194;2023-05-20T13:54:38;20.50;99.90
1391;DHT22;690;51.454;7.194;2023-05-20T13:57:07;20.30;99.90
1391;DHT22;690;51.454;7.194;2023-05-20T13:59:34;20.00;99.90
1391;DHT22;690;51.454;7.194;2023-05-20T14:02:01;19.80;99.90
1391;DHT22;690;51.454;7.194;2023-05-20T14:04:28;19.70;99.90
1391;DHT22;690;51.454;7.194;2023-05-20T14:06:56;19.50;99.90
1391;DHT22;690;51.454;7.194;2023-05-20T14:09:28;19.30;99.90
1391;DHT22;690;51.454;7.194;2023-05-20T14:11:56;19.20;99.90
1391;DHT22;690;51.454;7.194;2023-05-20T14:14:23;19.10;99.90
1391;DHT22;690;51.454;7.194;2023-05-20T14:16:50;19.00;99.90
1391;DHT22;690;51.454;7.194;2023-05-20T14:19:17;18.80;99.90
1391;DHT22;690;51.454;7.194;2023-05-20T14:21:43;18.70;99.90
1391;DHT22;690;51.454;7.194;2023-05-20T14:24:10;18.60;99.90
1391;DHT22;690;51.454;7.194;2023-05-20T14:26:37;18.70;99.90
1391;DHT22;690;51.454;7.194;2023-05-20T14:29:05;18.70;99.90
1391;DHT22;690;51.454;7.194;2023-05-20T14:31:32;18.80;99.90
1391;DHT22;690;51.454;7.194;2023-05-20T14:33:59;18.80;99.90
1391;DHT22;690;51.454;7.194;2023-05-20T14:36:26;18.80;99.90
1391;DHT22;690;51.454;7.194;2023-05-20T14:38:53;18.90;99.90
1391;DHT22;690;51.454;7.194;2023-05-20T14:41:20;18.80;99.90
1391;DHT22;690;51.454;7.194;2023-05-20T14:43:47;18.70;99.90
1391;DHT22;690;51.454;7.194;2023-05-20T14:46:16;18.80;99.90
1391;DHT22;690;51.454;7.194;2023-05-20T14:48:43;18.90;99.90
1391;DHT22;690;51.454;7.194;2023-05-20T14:51:11;19.10;99.90
1391;DHT22;690;51.454;7.194;2023-05-20T14:53:38;19.20;99.90
1391;DHT22;690;51.454;7.194;2023-05-20T14:56:05;19.30;99.90
1391;DHT22;690;51.454;7.194;2023-05-20T14:58:32;19.60;99.90
1391;DHT22;690;51.454;7.194;2023-05-20T15:00:59;19.80;99.90
1391;DHT22;690;51.454;7.194;2023-05-20T15:03:28;20.00;99.90
1391;DHT22;690;51.454;7.194;2023-05-20T15:05:55;20.20;99.90
1391;DHT22;690;51.454;7.194;2023-05-20T15:08:22;20.40;99.90
1391;DHT22;690;51.454;7.194;2023-05-20T15:10:49;20.50;99.90
1391;DHT22;690;51.454;7.194;2023-05-20T15:13:17;20.40;99.90
1391;DHT22;690;51.454;7.194;2023-05-20T15:15:44;20.30;99.90
1391;DHT22;690;51.454;7.194;2023-05-20T15:18:11;20.00;99.90
1391;DHT22;690;51.454;7.194;2023-05-20T15:20:39;19.70;99.90
1391;DHT22;690;51.454;7.194;2023-05-20T15:23:06;19.50;99.90
1391;DHT22;690;51.454;7.194;2023-05-20T15:25:33;19.50;99.90
1391;DHT22;690;51.454;7.194;2023-05-20T15:28:00;19.50;99.90
1391;DHT22;690;51.454;7.194;2023-05-20T15:30:27;19.50;99.90
1391;DHT22;690;51.454;7.194;2023-05-20T15:32:54;19.50;99.90
1391;DHT22;690;51.454;7.194;2023-05-20T15:35:21;19.40;99.90
1391;DHT22;690;51.454;7.194;2023-05-20T15:37:50;19.30;99.90
1391;DHT22;690;51.454;7.194;2023-05-20T15:40:17;19.00;99.90
1391;DHT22;690;51.454;7.194;2023-05-20T15:42:44;18.80;99.90
1391;DHT22;690;51.454;7.194;2023-05-20T15:45:11;18.60;99.90
1391;DHT22;690;51.454;7.194;2023-05-20T15:47:38;18.20;99.90
1391;DHT22;690;51.454;7.194;2023-05-20T15:50:06;18.00;99.90
1391;DHT22;690;51.454;7.194;2023-05-20T15:52:36;17.80;99.90
1391;DHT22;690;51.454;7.194;2023-05-20T15:55:05;17.70;99.90
1391;DHT22;690;51.454;7.194;2023-05-20T15:57:32;17.60;99.90
1391;DHT22;690;51.454;7.194;2023-05-20T15:59:59;17.60;99.90
1391;DHT22;690;51.454;7.194;2023-05-20T16:02:26;17.50;99.90
1391;DHT22;690;51.454;7.194;2023-05-20T16:04:55;17.40;99.90
1391;DHT22;690;51.454;7.194;2023-05-20T16:07:22;17.30;99.90
1391;DHT22;690;51.454;7.194;2023-05-20T16:09:49;17.20;99.90
1391;DHT22;690;51.454;7.194;2023-05-20T16:12:17;17.20;99.90
1391;DHT22;690;51.454;7.194;2023-05-20T16:14:44;17.10;99.90
1391;DHT22;690;51.454;7.194;2023-05-20T16:17:11;17.00;99.90
1391;DHT22;690;51.454;7.194;2023-05-20T16:19:38;17.00;99.90
1391;DHT22;690;51.454;7.194;2023-05-20T16:22:06;16.90;99.90
1391;DHT22;690;51.454;7.194;2023-05-20T16:24:34;16.80;99.90
1391;DHT22;690;51.454;7.194;2023-05-20T16:27:01;16.70;99.90